Aviation Digital Data Service (ADDS)

Output produced by METARs form (1700 UTC 03 July 2020)
found at http://aviationweather.gov/metar/data/
 
TAF EPDA 031700Z 0318/0403 27007KT CAVOK 
     BECMG 0319/0321 18010KT 
     PROB30 
     TEMPO 0319/0321 5000 MIFG BR